createdAt,value
2022-12-09T00:00:44.181Z,33
2022-12-09T00:01:51.498Z,31.6
2022-12-09T00:02:58.916Z,32.7
2022-12-09T00:04:06.344Z,30.2
2022-12-09T00:05:13.328Z,25.8
2022-12-09T00:06:20.807Z,25.5
2022-12-09T00:07:28.160Z,25
2022-12-09T00:08:35.979Z,26.5
2022-12-09T00:09:42.967Z,23.4
2022-12-09T00:10:50.979Z,24.4
2022-12-09T00:11:58.061Z,27
2022-12-09T00:13:05.364Z,25.5
2022-12-09T00:14:12.554Z,29
2022-12-09T00:15:19.737Z,28.8
2022-12-09T00:16:26.878Z,27.7
2022-12-09T00:17:33.979Z,26.7
2022-12-09T00:18:41.395Z,24.2
2022-12-09T00:19:48.831Z,27.9
2022-12-09T00:20:56.515Z,28.3
2022-12-09T00:22:03.993Z,26.8
2022-12-09T00:23:11.225Z,28.4
2022-12-09T00:24:18.554Z,26
2022-12-09T00:25:25.815Z,30.3
2022-12-09T00:26:33.127Z,32.5
2022-12-09T00:27:40.454Z,30.4
2022-12-09T00:28:47.601Z,30.3
2022-12-09T00:29:54.954Z,28.6
2022-12-09T00:31:02.385Z,27.4
2022-12-09T00:32:09.752Z,25.8
2022-12-09T00:33:16.962Z,24.9
2022-12-09T00:34:24.197Z,24.9
2022-12-09T00:35:31.080Z,22.9
2022-12-09T00:36:38.323Z,22.3
2022-12-09T00:37:45.783Z,21.1
2022-12-09T00:38:53.005Z,22.9
2022-12-09T00:40:00.483Z,23.8
2022-12-09T00:41:07.773Z,20.2
2022-12-09T00:42:14.976Z,19.7
2022-12-09T00:43:22.306Z,17.5
2022-12-09T00:44:29.607Z,17.7
2022-12-09T00:45:36.900Z,18.2
2022-12-09T00:46:44.630Z,16
2022-12-09T00:47:51.693Z,18.1
2022-12-09T00:48:58.789Z,17.3
2022-12-09T00:50:06.312Z,18.1
2022-12-09T00:51:13.583Z,18.9
2022-12-09T00:52:21.644Z,16.9
2022-12-09T00:53:29.387Z,17
2022-12-09T00:54:36.728Z,16.9
2022-12-09T00:55:44.817Z,17.4
2022-12-09T00:56:52.012Z,16.6
2022-12-09T00:57:59.260Z,15.8
2022-12-09T00:59:06.434Z,16.1
2022-12-09T01:00:13.761Z,16.6
2022-12-09T01:01:21.781Z,15.4
2022-12-09T01:02:29.219Z,15.9
2022-12-09T01:03:36.643Z,16
2022-12-09T01:04:44.126Z,15.9
2022-12-09T01:05:51.199Z,18.6
2022-12-09T01:06:58.261Z,17.4
2022-12-09T01:08:05.797Z,14.8
2022-12-09T01:09:16.873Z,15.7
2022-12-09T01:10:24.754Z,17.2
2022-12-09T01:11:32.179Z,18.9
2022-12-09T01:12:39.785Z,17.1
2022-12-09T01:13:47.132Z,16.4
2022-12-09T01:14:54.208Z,16.8
2022-12-09T01:16:01.542Z,17.5
2022-12-09T01:17:09.418Z,18.1
2022-12-09T01:18:16.395Z,18
2022-12-09T01:19:24.719Z,17.6
2022-12-09T01:20:33.121Z,19.3
2022-12-09T01:21:40.487Z,17.6
2022-12-09T01:22:47.851Z,17.7
2022-12-09T01:23:55.275Z,17.3
2022-12-09T01:25:02.585Z,19.2
2022-12-09T01:26:10.620Z,16.7
2022-12-09T01:27:18.139Z,18.1
2022-12-09T01:28:25.321Z,18.2
2022-12-09T01:29:32.635Z,17.4
2022-12-09T01:30:40.272Z,16.7
2022-12-09T01:31:48.169Z,18.4
2022-12-09T01:32:55.703Z,19.8
2022-12-09T01:34:03.327Z,17
2022-12-09T01:35:11.156Z,18.1
2022-12-09T01:36:18.947Z,18.6
2022-12-09T01:37:26.520Z,18.7
2022-12-09T01:38:33.219Z,16.8
2022-12-09T01:39:40.699Z,15.6
2022-12-09T01:40:48.835Z,17.3
2022-12-09T01:41:56.204Z,16.6
2022-12-09T01:43:06.872Z,15.5
2022-12-09T01:44:23.074Z,15
2022-12-09T01:45:30.413Z,16
2022-12-09T01:46:41.378Z,14.5
2022-12-09T01:47:48.490Z,19.2
2022-12-09T01:48:56.301Z,16.6
2022-12-09T01:50:07.198Z,16.3
2022-12-09T01:51:13.818Z,15.3
2022-12-09T01:52:21.365Z,12.9
2022-12-09T01:53:28.839Z,13.3
2022-12-09T01:54:36.416Z,12.3
2022-12-09T01:55:43.397Z,12.8
2022-12-09T01:56:51.637Z,14.3
2022-12-09T01:57:58.852Z,11.8
2022-12-09T01:59:09.367Z,11.2
2022-12-09T02:00:17.554Z,12.4
2022-12-09T02:01:40.693Z,12.6
2022-12-09T02:02:48.139Z,11.4
2022-12-09T02:03:55.919Z,12
2022-12-09T02:05:02.828Z,11.8
2022-12-09T02:06:10.477Z,12.8
2022-12-09T02:07:17.486Z,11.2
2022-12-09T02:08:25.118Z,12.1
2022-12-09T02:09:32.799Z,12.3
2022-12-09T02:10:40.572Z,14
2022-12-09T02:11:53.162Z,11.4
2022-12-09T02:13:11.208Z,12.4
2022-12-09T02:14:23.762Z,11.5
2022-12-09T02:15:30.877Z,12.9
2022-12-09T02:16:40.981Z,11.5
2022-12-09T02:17:48.107Z,12.5
2022-12-09T02:18:58.315Z,13.6
2022-12-09T02:20:16.153Z,12.3
2022-12-09T02:21:26.633Z,11.2
2022-12-09T02:22:39.023Z,12.6
2022-12-09T02:23:49.829Z,13.4
2022-12-09T02:25:02.755Z,11.5
2022-12-09T02:26:15.538Z,13.1
2022-12-09T02:27:31.139Z,12.8
2022-12-09T02:28:41.193Z,12.3
2022-12-09T02:29:56.670Z,12.3
2022-12-09T02:31:09.130Z,14.3
2022-12-09T02:32:28.024Z,13.4
2022-12-09T02:33:37.840Z,12.7
2022-12-09T02:34:55.356Z,11.8
2022-12-09T02:36:07.745Z,12.8
2022-12-09T02:37:15.672Z,11.7
2022-12-09T02:38:23.945Z,14.2
2022-12-09T02:39:31.778Z,13.9
2022-12-09T02:40:39.152Z,14.1
2022-12-09T02:41:56.555Z,14.4
2022-12-09T02:43:04.195Z,14.4
2022-12-09T02:44:11.890Z,13.2
2022-12-09T02:45:20.380Z,13.2
2022-12-09T02:46:27.797Z,13.9
2022-12-09T02:47:35.827Z,14.6
2022-12-09T02:48:43.025Z,12.8
2022-12-09T02:49:50.651Z,13.2
2022-12-09T02:51:03.824Z,13.3
2022-12-09T02:52:11.013Z,12.3
2022-12-09T02:53:18.547Z,11.9
2022-12-09T02:54:26.168Z,12.7
2022-12-09T02:55:34.875Z,12.2
2022-12-09T02:56:42.363Z,12
2022-12-09T02:57:50.564Z,10.9
2022-12-09T02:58:57.658Z,11.8
2022-12-09T03:00:06.373Z,11.9
2022-12-09T03:01:14.044Z,11.2
2022-12-09T03:02:29.946Z,11.8
2022-12-09T03:03:37.089Z,11.5
2022-12-09T03:04:45.078Z,12.3
2022-12-09T03:05:52.055Z,13.4
2022-12-09T03:07:02.076Z,15
2022-12-09T03:08:15.098Z,14.7
2022-12-09T03:09:27.485Z,13.5
2022-12-09T03:10:35.241Z,14.8
2022-12-09T03:11:42.634Z,13.4
2022-12-09T03:12:49.812Z,14.4
2022-12-09T03:14:02.435Z,14.7
2022-12-09T03:15:15.082Z,15.2
2022-12-09T03:16:22.575Z,15.2
2022-12-09T03:17:35.173Z,14.5
2022-12-09T03:18:42.553Z,14.7
2022-12-09T03:19:50.345Z,14.9
2022-12-09T03:20:57.426Z,15.1
2022-12-09T03:22:04.696Z,14.5
2022-12-09T03:23:14.550Z,18.4
2022-12-09T03:24:21.766Z,17.9
2022-12-09T03:25:32.951Z,17.2
2022-12-09T03:26:43.066Z,18.1
2022-12-09T03:27:50.457Z,18.2
2022-12-09T03:28:57.895Z,19.8
2022-12-09T03:30:05.802Z,17.8
2022-12-09T03:31:13.141Z,17.5
2022-12-09T03:32:20.525Z,17.2
2022-12-09T03:33:28.756Z,18
2022-12-09T03:34:36.265Z,16.5
2022-12-09T03:35:43.462Z,16.7
2022-12-09T03:36:53.382Z,18.4
2022-12-09T03:38:00.722Z,17.8
2022-12-09T03:39:08.059Z,18.3
2022-12-09T03:40:18.442Z,18.1
2022-12-09T03:41:25.611Z,19.6
2022-12-09T03:42:33.150Z,17.5
2022-12-09T03:43:40.673Z,17.7
2022-12-09T03:44:48.774Z,20
2022-12-09T03:46:01.544Z,17.4
2022-12-09T03:47:08.811Z,16.6
2022-12-09T03:48:16.153Z,15.5
2022-12-09T03:49:24.402Z,17.4
2022-12-09T03:50:32.065Z,16.8
2022-12-09T03:51:39.776Z,17
2022-12-09T03:52:50.106Z,18.6
2022-12-09T03:53:57.793Z,17.2
2022-12-09T03:55:05.253Z,16.9
2022-12-09T03:56:13.016Z,19
2022-12-09T03:57:22.603Z,18.8
2022-12-09T03:58:30.902Z,19.7
2022-12-09T03:59:37.946Z,20.1
2022-12-09T04:00:45.412Z,21
2022-12-09T04:01:52.788Z,24.5
2022-12-09T04:02:59.821Z,22.8
2022-12-09T04:04:07.256Z,24.5
2022-12-09T04:05:15.623Z,23
2022-12-09T04:06:23.190Z,24.1
2022-12-09T04:07:30.286Z,21.7
2022-12-09T04:08:38.067Z,23.1
2022-12-09T04:09:45.387Z,22.1
2022-12-09T04:10:52.145Z,19.7
2022-12-09T04:11:59.763Z,20
2022-12-09T04:13:07.339Z,19.8
2022-12-09T04:14:15.891Z,17.5
2022-12-09T04:15:22.120Z,18.6
2022-12-09T04:16:30.231Z,18.9
2022-12-09T04:17:37.584Z,16.3
2022-12-09T04:18:44.938Z,18.1
2022-12-09T04:19:52.338Z,17.9
2022-12-09T04:20:59.569Z,19.2
2022-12-09T04:22:12.033Z,17
2022-12-09T04:23:19.533Z,18.2
2022-12-09T04:24:26.842Z,14.9
2022-12-09T04:25:34.087Z,15.2
2022-12-09T04:26:41.509Z,16.9
2022-12-09T04:27:49.191Z,16.2
2022-12-09T04:28:56.301Z,18.4
2022-12-09T04:30:03.524Z,17.9
2022-12-09T04:31:11.306Z,17.7
2022-12-09T04:32:18.443Z,17
2022-12-09T04:33:25.570Z,17.9
2022-12-09T04:34:33.990Z,17.5
2022-12-09T04:35:41.417Z,20.7
2022-12-09T04:36:48.563Z,19.3
2022-12-09T04:37:55.468Z,18.4
2022-12-09T04:39:02.473Z,17.3
2022-12-09T04:40:10.212Z,19.5
2022-12-09T04:41:17.553Z,20.8
2022-12-09T04:42:24.476Z,19.7
2022-12-09T04:43:31.825Z,19.8
2022-12-09T04:44:39.277Z,20.9
2022-12-09T04:45:46.499Z,20.6
2022-12-09T04:46:53.376Z,19.4
2022-12-09T04:48:00.548Z,19.3
2022-12-09T04:49:07.687Z,18.8
2022-12-09T04:50:15.153Z,19.5
2022-12-09T04:51:21.945Z,20.7
2022-12-09T04:52:29.077Z,19.8
2022-12-09T04:53:36.340Z,19.8
2022-12-09T04:54:44.006Z,19.9
2022-12-09T04:55:52.449Z,18
2022-12-09T04:57:02.596Z,19.4
2022-12-09T04:58:10.243Z,21
2022-12-09T04:59:18.057Z,19.2
2022-12-09T05:00:26.343Z,20.8
2022-12-09T05:01:34.593Z,19.7
2022-12-09T05:02:41.775Z,19.2
2022-12-09T05:03:49.286Z,21.5
2022-12-09T05:04:56.868Z,22
2022-12-09T05:06:05.576Z,23.5
2022-12-09T05:07:13.160Z,22.8
2022-12-09T05:08:21.269Z,25.4
2022-12-09T05:09:29.475Z,25.2
2022-12-09T05:10:36.914Z,25.1
2022-12-09T05:11:43.859Z,23
2022-12-09T05:12:52.317Z,22.4
2022-12-09T05:14:02.401Z,20.8
2022-12-09T05:15:09.702Z,21.5
2022-12-09T05:16:17.536Z,23.1
2022-12-09T05:17:24.697Z,23.9
2022-12-09T05:18:32.161Z,22.6
2022-12-09T05:19:39.458Z,22
2022-12-09T05:20:47.184Z,25.5
2022-12-09T05:21:55.186Z,24.7
2022-12-09T05:23:07.601Z,25.3
2022-12-09T05:24:10.008Z,24.4
2022-12-09T05:25:17.037Z,25.7
2022-12-09T05:26:24.469Z,28.9
2022-12-09T05:27:32.404Z,25.5
2022-12-09T05:28:39.732Z,28.5
2022-12-09T05:29:47.566Z,26
2022-12-09T05:30:54.846Z,25.9
2022-12-09T05:32:02.200Z,26.4
2022-12-09T05:33:09.276Z,26.5
2022-12-09T05:34:17.362Z,25.8
2022-12-09T05:35:24.878Z,24.9
2022-12-09T05:36:32.330Z,25.1
2022-12-09T05:37:40.081Z,25.1
2022-12-09T05:38:47.582Z,27
2022-12-09T05:39:55.231Z,27.3
2022-12-09T05:41:02.324Z,27.1
2022-12-09T05:42:09.913Z,27.9
2022-12-09T05:43:17.279Z,27
2022-12-09T05:44:25.015Z,28.7
2022-12-09T05:45:32.349Z,32.8
2022-12-09T05:46:39.598Z,35.7
2022-12-09T05:47:47.035Z,36.5
2022-12-09T05:48:54.130Z,34.8
2022-12-09T05:50:06.030Z,34.3
2022-12-09T05:51:08.645Z,33.5
2022-12-09T05:52:18.884Z,34.7
2022-12-09T05:53:25.915Z,34.8
2022-12-09T05:54:33.339Z,36
2022-12-09T05:55:40.565Z,31.9
2022-12-09T05:56:48.927Z,30.6
2022-12-09T05:57:55.666Z,27.3
2022-12-09T05:59:02.568Z,29.6
2022-12-09T06:00:10.030Z,29.1
2022-12-09T06:01:17.991Z,27.8
2022-12-09T06:02:26.242Z,28.9
2022-12-09T06:03:34.049Z,30.7
2022-12-09T06:04:41.371Z,30.4
2022-12-09T06:05:48.784Z,32.5
2022-12-09T06:06:56.313Z,28.8
2022-12-09T06:08:06.753Z,30
2022-12-09T06:09:12.390Z,27.7
2022-12-09T06:10:19.069Z,25.5
2022-12-09T06:11:26.669Z,29.7
2022-12-09T06:12:33.381Z,29.2
2022-12-09T06:13:40.986Z,28.8
2022-12-09T06:14:48.762Z,26.9
2022-12-09T06:15:55.508Z,29.3
2022-12-09T06:17:05.440Z,30
2022-12-09T06:18:13.093Z,29.1
2022-12-09T06:19:20.292Z,30.3
2022-12-09T06:20:27.291Z,27.5
2022-12-09T06:21:34.691Z,29.5
2022-12-09T06:22:44.226Z,32.2
2022-12-09T06:23:51.540Z,31.3
2022-12-09T06:24:59.599Z,29.9
2022-12-09T06:26:06.934Z,31.9
2022-12-09T06:27:20.015Z,29.2
2022-12-09T06:28:26.758Z,30.2
2022-12-09T06:29:34.303Z,31.8
2022-12-09T06:30:41.400Z,28.7
2022-12-09T06:31:49.002Z,32.4
2022-12-09T06:32:56.315Z,29.7
2022-12-09T06:34:03.629Z,29.7
2022-12-09T06:35:11.029Z,29.5
2022-12-09T06:36:17.497Z,31.2
2022-12-09T06:37:25.776Z,29.5
2022-12-09T06:38:32.930Z,31
2022-12-09T06:39:40.732Z,30.8
2022-12-09T06:40:49.209Z,29.1
2022-12-09T06:41:56.568Z,29
2022-12-09T06:43:04.360Z,32
2022-12-09T06:44:11.678Z,32.7
2022-12-09T06:45:18.684Z,32.7
2022-12-09T06:46:26.333Z,32.7
2022-12-09T06:47:33.687Z,34.1
2022-12-09T06:48:40.173Z,35
2022-12-09T06:49:47.665Z,34.3
2022-12-09T06:50:54.454Z,33.3
2022-12-09T06:52:02.616Z,34.6
2022-12-09T06:53:10.162Z,35.1
2022-12-09T06:54:17.311Z,34.5
2022-12-09T06:55:24.067Z,34.2
2022-12-09T06:56:31.384Z,30.6
2022-12-09T06:57:38.897Z,32.4
2022-12-09T06:58:46.547Z,32.9
2022-12-09T06:59:53.771Z,32.8
2022-12-09T07:01:00.699Z,29.4
2022-12-09T07:02:16.057Z,35.7
2022-12-09T07:03:23.531Z,30.8
2022-12-09T07:04:31.300Z,33.7
2022-12-09T07:05:39.384Z,34.8
2022-12-09T07:06:47.352Z,37.8
2022-12-09T07:07:55.678Z,41.7
2022-12-09T07:09:03.107Z,37.6
2022-12-09T07:10:13.803Z,39.8
2022-12-09T07:11:20.927Z,39.5
2022-12-09T07:12:27.864Z,40.2
2022-12-09T07:13:35.038Z,41.2
2022-12-09T07:14:42.429Z,38.9
2022-12-09T07:15:50.466Z,37.1
2022-12-09T07:16:58.111Z,42.3
2022-12-09T07:18:06.153Z,41
2022-12-09T07:19:13.430Z,38.5
2022-12-09T07:20:20.849Z,39.8
2022-12-09T07:21:29.047Z,37.3
2022-12-09T07:22:36.357Z,39.4
2022-12-09T07:23:43.514Z,39.9
2022-12-09T07:24:50.510Z,38.5
2022-12-09T07:25:57.971Z,34.5
2022-12-09T07:27:09.101Z,39.6
2022-12-09T07:28:13.383Z,37.9
2022-12-09T07:29:20.256Z,35.4
2022-12-09T07:30:27.757Z,36.3
2022-12-09T07:31:34.631Z,35.4
2022-12-09T07:32:43.015Z,34.6
2022-12-09T07:33:50.246Z,34.8
2022-12-09T07:34:57.326Z,36.3
2022-12-09T07:36:05.052Z,34.4
2022-12-09T07:37:12.146Z,35.4
2022-12-09T07:38:19.459Z,38.1
2022-12-09T07:39:26.327Z,40.8
2022-12-09T07:40:34.082Z,39.9
2022-12-09T07:41:41.343Z,40
2022-12-09T07:42:48.261Z,37.8
2022-12-09T07:43:55.201Z,44.8
2022-12-09T07:45:02.388Z,41.7
2022-12-09T07:46:11.333Z,41.8
2022-12-09T07:47:18.768Z,45.3
2022-12-09T07:48:25.450Z,48.2
2022-12-09T07:49:32.530Z,47
2022-12-09T07:50:39.598Z,42.1
2022-12-09T07:51:47.825Z,43.9
2022-12-09T07:52:54.915Z,42.4
2022-12-09T07:54:02.015Z,39.5
2022-12-09T07:55:09.557Z,42.2
2022-12-09T07:56:16.321Z,43.1
2022-12-09T07:57:23.774Z,42.5
2022-12-09T07:58:30.502Z,40.6
2022-12-09T07:59:37.967Z,45.9
2022-12-09T08:00:44.673Z,45
2022-12-09T08:01:52.196Z,46.2
2022-12-09T08:02:59.290Z,45.3
2022-12-09T08:04:06.227Z,49.4
2022-12-09T08:05:13.677Z,47.1
2022-12-09T08:06:20.665Z,47.7
2022-12-09T08:07:28.190Z,48.8
2022-12-09T08:08:34.805Z,53.1
2022-12-09T08:09:42.094Z,57.5
2022-12-09T08:10:49.511Z,57.9
2022-12-09T08:11:56.679Z,62.3
2022-12-09T08:13:03.827Z,61.8
2022-12-09T08:14:12.807Z,58.8
2022-12-09T08:15:18.833Z,62.9
2022-12-09T08:16:25.943Z,64.8
2022-12-09T08:17:33.390Z,67.8
2022-12-09T08:18:40.220Z,64
2022-12-09T08:19:47.436Z,63.3
2022-12-09T08:20:54.677Z,59.5
2022-12-09T08:22:01.669Z,64.9
2022-12-09T08:23:09.013Z,56.9
2022-12-09T08:24:16.048Z,56.1
2022-12-09T08:25:23.160Z,54.3
2022-12-09T08:26:30.667Z,54.9
2022-12-09T08:27:38.822Z,54.4
2022-12-09T08:28:45.969Z,52.1
2022-12-09T08:29:52.869Z,53.1
2022-12-09T08:31:01.166Z,53.4
2022-12-09T08:32:13.444Z,49.9
2022-12-09T08:33:21.490Z,50.4
2022-12-09T08:34:29.361Z,52.1
2022-12-09T08:35:36.733Z,51.4
2022-12-09T08:36:44.391Z,54.1
2022-12-09T08:37:51.511Z,66.3
2022-12-09T08:38:58.246Z,81
2022-12-09T08:40:06.173Z,87.2
2022-12-09T08:41:13.347Z,92
2022-12-09T08:42:23.636Z,101.4
2022-12-09T08:43:30.732Z,85.2
2022-12-09T08:44:37.697Z,70.2
2022-12-09T08:45:45.264Z,71.6
2022-12-09T08:46:52.792Z,74
2022-12-09T08:47:59.616Z,74.3
2022-12-09T08:49:07.234Z,64
2022-12-09T08:50:14.430Z,72.1
2022-12-09T08:51:20.941Z,69.7
2022-12-09T08:52:28.229Z,66.4
2022-12-09T08:53:35.764Z,60.7
2022-12-09T08:54:43.116Z,61.5
2022-12-09T08:55:50.935Z,57.3
2022-12-09T08:56:58.397Z,54.4
2022-12-09T08:58:05.134Z,58.2
2022-12-09T08:59:12.412Z,53.5
2022-12-09T09:00:19.659Z,52.4
2022-12-09T09:01:27.746Z,55
2022-12-09T09:02:37.599Z,50.8
2022-12-09T09:03:45.123Z,51.7
2022-12-09T09:04:52.085Z,54.8
2022-12-09T09:06:03.817Z,51.1
2022-12-09T09:07:11.411Z,50.7
2022-12-09T09:08:18.347Z,49.1
2022-12-09T09:09:25.371Z,50.6
2022-12-09T09:10:32.556Z,49.5
2022-12-09T09:11:39.614Z,54.4
2022-12-09T09:12:46.296Z,54.3
2022-12-09T09:13:53.807Z,51.9
2022-12-09T09:15:00.623Z,49.2
2022-12-09T09:16:11.214Z,49.5
2022-12-09T09:17:17.836Z,50.8
2022-12-09T09:18:25.270Z,50.6
2022-12-09T09:19:32.632Z,54.3
2022-12-09T09:20:40.354Z,52.6
2022-12-09T09:21:47.341Z,55.6
2022-12-09T09:22:59.556Z,53.9
2022-12-09T09:24:01.665Z,55.3
2022-12-09T09:25:11.791Z,56.1
2022-12-09T09:26:18.554Z,53.8
2022-12-09T09:27:25.638Z,45.6
2022-12-09T09:28:32.695Z,43.6
2022-12-09T09:29:39.732Z,42.5
2022-12-09T09:30:46.404Z,39.1
2022-12-09T09:31:53.511Z,38.9
2022-12-09T09:33:01.811Z,39.2
2022-12-09T09:34:08.323Z,35.7
2022-12-09T09:35:15.799Z,36.1
2022-12-09T09:36:22.905Z,37.6
2022-12-09T09:37:30.993Z,33.8
2022-12-09T09:38:39.311Z,33.5
2022-12-09T09:39:45.965Z,35.2
2022-12-09T09:40:53.355Z,36.3
2022-12-09T09:42:06.163Z,36.5
2022-12-09T09:43:07.616Z,36
2022-12-09T09:44:15.490Z,38.2
2022-12-09T09:45:30.882Z,36.2
2022-12-09T09:46:38.210Z,37.8
2022-12-09T09:47:45.526Z,40
2022-12-09T09:49:00.780Z,39.9
2022-12-09T09:50:08.095Z,40.1
2022-12-09T09:51:24.808Z,37.3
2022-12-09T09:52:31.855Z,40.2
2022-12-09T09:53:39.092Z,37.2
2022-12-09T09:54:46.542Z,37.3
2022-12-09T09:55:54.806Z,37.1
2022-12-09T09:57:10.119Z,37.4
2022-12-09T09:58:24.775Z,39.1
2022-12-09T09:59:40.144Z,38.7
2022-12-09T10:00:54.849Z,36.1
2022-12-09T10:02:07.613Z,35.7
2022-12-09T10:03:14.310Z,32.3
2022-12-09T10:04:30.619Z,32.6
2022-12-09T10:05:45.845Z,31.7
2022-12-09T10:06:53.364Z,31.6
2022-12-09T10:08:11.344Z,30
2022-12-09T10:09:28.578Z,30.6
2022-12-09T10:10:35.508Z,32.8
2022-12-09T10:11:49.313Z,32.7
2022-12-09T10:13:05.987Z,31.3
2022-12-09T10:14:08.822Z,30.8
2022-12-09T10:15:20.609Z,30.6
2022-12-09T10:16:31.160Z,27.1
2022-12-09T10:17:43.903Z,29.9
2022-12-09T10:18:50.782Z,29.1
2022-12-09T10:20:02.921Z,30
2022-12-09T10:21:09.810Z,30.2
2022-12-09T10:22:20.382Z,29.6
2022-12-09T10:23:27.682Z,31
2022-12-09T10:24:39.836Z,30.2
2022-12-09T10:25:42.801Z,28.1
2022-12-09T10:26:57.751Z,29.6
2022-12-09T10:28:04.939Z,31.2
2022-12-09T10:29:21.351Z,30.4
2022-12-09T10:30:40.144Z,48
2022-12-09T10:31:41.261Z,41.9
2022-12-09T10:32:48.325Z,50
2022-12-09T10:33:55.508Z,48.7
2022-12-09T10:35:02.402Z,56.6
2022-12-09T10:36:17.399Z,58.7
2022-12-09T10:37:26.760Z,59.6
2022-12-09T10:38:34.195Z,62.7
2022-12-09T10:39:41.363Z,59.7
2022-12-09T10:40:48.152Z,57.2
2022-12-09T10:42:02.969Z,57
2022-12-09T10:43:15.285Z,63.1
2022-12-09T10:44:27.555Z,61
2022-12-09T10:45:53.013Z,59.8
2022-12-09T10:46:47.830Z,59.9
2022-12-09T10:48:05.788Z,60.3
2022-12-09T10:49:23.806Z,60.3
2022-12-09T10:50:31.729Z,58.9
2022-12-09T10:51:38.871Z,55.6
2022-12-09T10:52:46.025Z,52.8
2022-12-09T10:53:54.113Z,53.9
2022-12-09T10:55:08.441Z,54.1
2022-12-09T10:56:23.438Z,52.8
2022-12-09T10:57:36.152Z,54.9
2022-12-09T10:58:43.410Z,52.3
2022-12-09T10:59:50.148Z,50.7
2022-12-09T11:01:11.929Z,51
2022-12-09T11:02:22.014Z,50.8
2022-12-09T11:03:29.039Z,45.4
2022-12-09T11:04:39.422Z,41.9
2022-12-09T11:05:46.017Z,42.4
2022-12-09T11:06:57.490Z,40.3
2022-12-09T11:08:10.722Z,42.4
2022-12-09T11:09:17.472Z,43.4
2022-12-09T11:10:25.313Z,44.1
2022-12-09T11:11:31.680Z,47.9
2022-12-09T11:12:42.264Z,46
2022-12-09T11:13:48.789Z,44.2
2022-12-09T11:14:56.283Z,42.5
2022-12-09T11:16:09.030Z,40.4
2022-12-09T11:17:16.084Z,41.3
2022-12-09T11:18:31.147Z,41.8
2022-12-09T11:19:46.218Z,41.3
2022-12-09T11:21:01.254Z,38.2
2022-12-09T11:22:08.494Z,34.3
2022-12-09T11:23:24.006Z,36.1
2022-12-09T11:24:31.181Z,35.2
2022-12-09T11:25:38.499Z,37.3
2022-12-09T11:26:55.555Z,34.8
2022-12-09T11:28:02.648Z,39.9
2022-12-09T11:29:18.528Z,40.7
2022-12-09T11:30:26.945Z,41.1
2022-12-09T11:31:38.933Z,40.1
2022-12-09T11:32:46.256Z,39.4
2022-12-09T11:33:56.799Z,41.2
2022-12-09T11:35:06.833Z,36.9
2022-12-09T11:36:13.938Z,41
2022-12-09T11:37:20.945Z,41
2022-12-09T11:38:28.114Z,41
2022-12-09T11:39:40.797Z,41.2
2022-12-09T11:40:47.965Z,42
2022-12-09T11:42:05.236Z,38.2
2022-12-09T11:43:23.148Z,37.9
2022-12-09T11:44:38.748Z,36.6
2022-12-09T11:45:51.168Z,33.5
2022-12-09T11:46:58.468Z,33.1
2022-12-09T11:48:26.078Z,33.6
2022-12-09T11:49:32.390Z,29.7
2022-12-09T11:50:39.539Z,27.9
2022-12-09T11:51:46.704Z,31.2
2022-12-09T11:53:03.952Z,30.9
2022-12-09T11:54:13.628Z,30
2022-12-09T11:55:23.377Z,31.6
2022-12-09T11:56:30.404Z,27.1
2022-12-09T11:57:38.597Z,28.3
2022-12-09T11:58:50.719Z,27.8
2022-12-09T12:00:03.008Z,27.6
2022-12-09T12:01:11.051Z,27.2
2022-12-09T12:02:18.781Z,29
2022-12-09T12:03:31.060Z,28.3
2022-12-09T12:04:41.040Z,25.1
2022-12-09T12:05:53.557Z,25.7
2022-12-09T12:07:01.024Z,25.3
2022-12-09T12:08:08.299Z,26
2022-12-09T12:09:25.580Z,24.4
2022-12-09T12:10:32.894Z,23.2
2022-12-09T12:11:40.946Z,23.2
2022-12-09T12:12:47.861Z,21.7
2022-12-09T12:14:05.256Z,24
2022-12-09T12:15:20.140Z,22.6
2022-12-09T12:16:36.178Z,24
2022-12-09T12:17:50.151Z,23.1
2022-12-09T12:18:57.136Z,25.1
2022-12-09T12:20:12.051Z,25.2
2022-12-09T12:21:19.108Z,25.4
2022-12-09T12:22:34.149Z,24.6
2022-12-09T12:23:46.472Z,28.3
2022-12-09T12:24:56.988Z,25.2
2022-12-09T12:26:12.113Z,25.2
2022-12-09T12:27:20.063Z,26.8
2022-12-09T12:28:32.516Z,25.5
2022-12-09T12:29:39.619Z,27.3
2022-12-09T12:30:57.628Z,28.7
2022-12-09T12:32:15.247Z,30.3
2022-12-09T12:34:00.206Z,28.3
2022-12-09T12:34:39.350Z,28.7
2022-12-09T12:35:47.551Z,29
2022-12-09T12:37:00.040Z,30.4
2022-12-09T12:38:15.336Z,31.9
2022-12-09T12:39:31.125Z,27.7
2022-12-09T12:40:46.303Z,31.2
2022-12-09T12:41:53.413Z,28.3
2022-12-09T12:43:00.543Z,31
2022-12-09T12:44:17.932Z,28.4
2022-12-09T12:45:40.355Z,29.3
2022-12-09T12:47:00.584Z,27.2
2022-12-09T12:48:07.892Z,28.3
2022-12-09T12:49:14.900Z,25.9
2022-12-09T12:50:27.540Z,27.1
2022-12-09T12:51:34.371Z,29.5
2022-12-09T12:52:56.303Z,26.7
2022-12-09T12:54:03.839Z,27.6
2022-12-09T12:55:21.123Z,29.5
2022-12-09T12:56:33.472Z,30.1
2022-12-09T12:57:43.455Z,29.4
2022-12-09T12:58:53.179Z,29.1
2022-12-09T13:00:10.543Z,31.6
2022-12-09T13:01:17.757Z,32.6
2022-12-09T13:02:29.968Z,31.1
2022-12-09T13:03:47.655Z,35.1
2022-12-09T13:04:59.847Z,32
2022-12-09T13:06:06.937Z,33.7
2022-12-09T13:07:14.066Z,30.2
2022-12-09T13:08:21.265Z,31.3
2022-12-09T13:09:38.515Z,32.8
2022-12-09T13:10:45.698Z,31.9
2022-12-09T13:11:55.815Z,32.4
2022-12-09T13:13:11.044Z,32.9
2022-12-09T13:14:18.175Z,26.8
2022-12-09T13:15:27.131Z,29.7
2022-12-09T13:16:41.027Z,29
2022-12-09T13:17:48.188Z,29.8
2022-12-09T13:18:55.323Z,32.3
2022-12-09T13:20:10.701Z,30.9
2022-12-09T13:21:22.231Z,32.7
2022-12-09T13:22:29.642Z,33.3
2022-12-09T13:23:37.388Z,31.8
2022-12-09T13:24:56.817Z,31.4
2022-12-09T13:26:04.647Z,33.9
2022-12-09T13:27:22.191Z,35.8
2022-12-09T13:28:39.259Z,32.8
2022-12-09T13:29:51.376Z,30.9
2022-12-09T13:31:06.241Z,34.1
2022-12-09T13:32:13.271Z,32.1
2022-12-09T13:33:23.123Z,33.1
2022-12-09T13:34:35.266Z,34
2022-12-09T13:35:43.251Z,33.8
2022-12-09T13:36:58.227Z,35.7
2022-12-09T13:38:05.331Z,35.8
2022-12-09T13:39:22.821Z,35.8
2022-12-09T13:40:40.031Z,36.1
2022-12-09T13:41:47.175Z,38.1
2022-12-09T13:42:59.267Z,36.2
2022-12-09T13:44:06.544Z,36.5
2022-12-09T13:45:13.507Z,36.7
2022-12-09T13:46:23.372Z,40.3
2022-12-09T13:47:30.336Z,37.4
2022-12-09T13:48:37.568Z,39
2022-12-09T13:49:44.573Z,38.6
2022-12-09T13:50:56.827Z,39.8
2022-12-09T13:52:04.215Z,39.1
2022-12-09T13:53:11.161Z,38
2022-12-09T13:54:23.332Z,40.3
2022-12-09T13:55:32.169Z,39.6
2022-12-09T13:56:39.234Z,39.1
2022-12-09T13:57:46.479Z,40.5
2022-12-09T13:58:56.783Z,38.9
2022-12-09T14:00:09.799Z,40.8
2022-12-09T14:01:19.504Z,40.2
2022-12-09T14:02:27.684Z,40.5
2022-12-09T14:03:34.953Z,39.4
2022-12-09T14:04:51.955Z,42
2022-12-09T14:06:01.726Z,41.7
2022-12-09T14:07:14.808Z,39.4
2022-12-09T14:08:24.603Z,35.9
2022-12-09T14:09:34.774Z,34.7
2022-12-09T14:10:44.416Z,31.2
2022-12-09T14:11:51.580Z,31.4
2022-12-09T14:12:58.743Z,30.4
2022-12-09T14:14:06.596Z,29.6
2022-12-09T14:15:24.179Z,31.7
2022-12-09T14:16:31.543Z,31.4
2022-12-09T14:17:38.508Z,31.3
2022-12-09T14:18:45.692Z,29.5
2022-12-09T14:19:52.759Z,28.8
2022-12-09T14:21:00.785Z,32.8
2022-12-09T14:22:18.131Z,33.1
2022-12-09T14:23:25.262Z,33.4
2022-12-09T14:24:32.455Z,34.4
2022-12-09T14:25:39.586Z,34
2022-12-09T14:26:46.702Z,34.8
2022-12-09T14:27:56.403Z,32.4
2022-12-09T14:29:13.943Z,34.8
2022-12-09T14:30:32.560Z,36.8
2022-12-09T14:31:49.839Z,36.5
2022-12-09T14:33:02.731Z,39.8
2022-12-09T14:34:20.350Z,39.8
2022-12-09T14:35:33.531Z,40.3
2022-12-09T14:36:54.233Z,42.4
2022-12-09T14:38:04.939Z,42.1
2022-12-09T14:39:25.782Z,43.1
2022-12-09T14:40:25.608Z,45.8
2022-12-09T14:41:32.697Z,43.1
2022-12-09T14:42:47.927Z,40.8
2022-12-09T14:44:06.069Z,41.7
2022-12-09T14:45:18.015Z,40.6
2022-12-09T14:46:27.704Z,36.6
2022-12-09T14:47:37.363Z,38.2
2022-12-09T14:48:44.410Z,36.4
2022-12-09T14:49:57.743Z,35.1
2022-12-09T14:51:11.534Z,40.1
2022-12-09T14:52:28.852Z,33.2
2022-12-09T14:53:35.955Z,31.8
2022-12-09T14:54:43.127Z,31.3
2022-12-09T14:55:50.116Z,31.9
2022-12-09T14:56:57.292Z,30.9
2022-12-09T14:58:04.454Z,30.7
2022-12-09T14:59:11.608Z,25.3
2022-12-09T15:00:24.725Z,24.1
2022-12-09T15:01:37.080Z,23.3
2022-12-09T15:03:08.930Z,25
2022-12-09T15:03:56.508Z,25.1
2022-12-09T15:05:04.414Z,26.5
2022-12-09T15:06:11.191Z,27.9
2022-12-09T15:07:20.856Z,26.8
2022-12-09T15:08:31.056Z,25.9
2022-12-09T15:09:41.452Z,27.9
2022-12-09T15:10:51.431Z,30.4
2022-12-09T15:11:58.804Z,28.2
2022-12-09T15:13:06.652Z,27.6
2022-12-09T15:14:14.616Z,26.3
2022-12-09T15:15:28.217Z,25.4
2022-12-09T15:16:35.327Z,28.5
2022-12-09T15:17:42.360Z,28.6
2022-12-09T15:18:49.464Z,26.2
2022-12-09T15:20:00.983Z,29.2
2022-12-09T15:21:03.756Z,26.9
2022-12-09T15:22:11.163Z,28.8
2022-12-09T15:23:28.931Z,27.4
2022-12-09T15:24:49.521Z,28.2